Tainan Airport
RCNN : now visible

Airfield :











YOU CAN JOIN US ON...

 
LOGIN :

Register | Disclaimer

   EN    FR    IT 

 









Legend :    VFR   Marginal VFR   IFR   Intensive IFR   Very Intensive IFR
Visi :
Ceiling :
>= 8 km
>= 3000ft
5 to 8 km
1000 to 3000 ft
1500m to 5 km
500 to 1000 ft
800 to 1500m
200 to 500 ft
< 800m
< 200 ft
Symbols :   Thunderstorms  Fog  Heavy snow  Heavy precipitations  Wind > 20 kt






- Airport Elevation : 63 ft
- IATA code : TNN


RCNN - Tainan

CURRENT METAR :
  • 271500Z 11003KT 9999 FEW012 SCT050 25/24 Q1004 RMK A2966

EXPIRED METARs :
  • 271400Z 14003KT 9999 FEW012 BKN050 26/24 Q1004 RMK A2967
  • 271330Z 12004KT 9999 FEW012 SCT025 BKN050 26/24 Q1005 RMK A2968
  • 271300Z 11003KT 9999 FEW010 SCT025 BKN050 26/24 Q1005 RMK A2968
  • 271230Z 11002KT 9999 FEW010 SCT020 BKN040 26/25 Q1005 RMK A2968
  • 271200Z 16002KT 9999 FEW010 SCT020 BKN040 27/25 Q1005 RMK A2968
  • 271130Z 19003KT 9999 FEW010 SCT020 BKN040 27/25 Q1004 RMK A2967
  • 271100Z 17003KT 9999 VCSH FEW012 SCT020 BKN040 27/24 Q1004 RMK A2966 RA AMT 0.1MM VCSH E
  • 271050Z 17003KT 9999 VCSH FEW012 SCT020 BKN040 27/24 Q1004 NOSIG RMK A2966 VCSH E

TAF TAF RCNN
Valid from the 27 at 12:00 until the 28 at 12:00 UTC


271100Z 2712/2812 18004KT 9999 -RA FEW010 BKN030 BKN050 TX30/2805Z TN25/2721Z
TEMPO 2718/2723 7000 -RA FEW010 BKN020 BKN040
BECMG 2801/2804 18006KT 3200 RA BR SCT008 FEW010CB BKN016 BKN040
BECMG 2806/2809 8000 -RA FEW010 BKN021 BKN050
BECMG 2810/2811 14004KT 9999 FEW010 SCT025 BKN050
RCAA FIR / Asia



MET'MAP, your aeronautical weather chart ! - Copyright ORBIFLY December 2007 - Disclaimer

ORBIFLY MET'MAP TEAM :

Programming & Development : Alexandra Zaïnal
Original concept : Baudouin d'Aumeries
Technical & hardware support : Manuel Goepfert
Assistance : Marc-Olivier Méhu




SOURCES & CREDITS :

   NOAA       Earth
Advisory